createdAt,value
2019-06-15T00:00:15.205Z,20.50
2019-06-15T00:01:15.185Z,20.50
2019-06-15T00:02:15.185Z,20.53
2019-06-15T00:03:15.176Z,20.53
2019-06-15T00:04:15.173Z,20.56
2019-06-15T00:05:15.176Z,20.57
2019-06-15T00:06:15.173Z,20.58
2019-06-15T00:07:15.171Z,20.58
2019-06-15T00:08:15.170Z,20.64
2019-06-15T00:09:15.161Z,20.61
2019-06-15T00:10:15.161Z,20.71
2019-06-15T00:11:15.161Z,20.66
2019-06-15T00:12:15.159Z,20.66
2019-06-15T00:13:15.159Z,20.69
2019-06-15T00:14:15.157Z,20.72
2019-06-15T00:15:15.152Z,20.66
2019-06-15T00:16:15.153Z,20.68
2019-06-15T00:17:15.152Z,20.68
2019-06-15T00:18:15.151Z,20.68
2019-06-15T00:19:15.145Z,20.66
2019-06-15T00:20:15.141Z,20.64
2019-06-15T00:21:15.142Z,20.68
2019-06-15T00:22:15.133Z,20.63
2019-06-15T00:23:15.133Z,20.71
2019-06-15T00:24:15.127Z,20.58
2019-06-15T00:25:15.137Z,20.61
2019-06-15T00:26:15.129Z,20.48
2019-06-15T00:27:15.129Z,20.50
2019-06-15T00:28:15.181Z,20.58
2019-06-15T00:29:15.120Z,20.64
2019-06-15T00:30:15.119Z,20.60
2019-06-15T00:31:15.121Z,20.68
2019-06-15T00:32:15.117Z,20.69
2019-06-15T00:33:15.113Z,20.66
2019-06-15T00:34:15.111Z,20.64
2019-06-15T00:35:15.107Z,20.64
2019-06-15T00:36:15.103Z,20.68
2019-06-15T00:37:15.104Z,20.68
2019-06-15T00:38:15.104Z,20.58
2019-06-15T00:39:15.109Z,20.50
2019-06-15T00:40:15.101Z,20.44
2019-06-15T00:41:15.097Z,20.50
2019-06-15T00:42:15.094Z,20.40
2019-06-15T00:43:15.094Z,20.26
2019-06-15T00:44:15.085Z,20.17
2019-06-15T00:45:15.087Z,20.08
2019-06-15T00:46:15.087Z,20.13
2019-06-15T00:47:15.084Z,19.98
2019-06-15T00:48:15.076Z,20.04
2019-06-15T00:49:15.079Z,19.95
2019-06-15T00:50:15.075Z,19.95
2019-06-15T00:51:15.076Z,20.00
2019-06-15T00:52:15.086Z,19.97
2019-06-15T00:53:15.067Z,19.89
2019-06-15T00:54:15.066Z,19.86
2019-06-15T00:55:15.062Z,19.95
2019-06-15T00:56:15.060Z,19.79
2019-06-15T00:57:15.063Z,19.87
2019-06-15T00:58:15.057Z,19.80
2019-06-15T00:59:15.110Z,19.79
2019-06-15T01:00:15.050Z,19.79
2019-06-15T01:01:15.043Z,19.79
2019-06-15T01:02:15.042Z,19.76
2019-06-15T01:03:15.042Z,19.79
2019-06-15T01:04:15.040Z,19.75
2019-06-15T01:05:15.032Z,19.83
2019-06-15T01:06:15.030Z,19.76
2019-06-15T01:07:15.031Z,19.83
2019-06-15T01:08:15.026Z,19.76
2019-06-15T01:09:15.043Z,19.78
2019-06-15T01:10:15.026Z,19.76
2019-06-15T01:11:15.022Z,19.80
2019-06-15T01:12:15.020Z,19.65
2019-06-15T01:13:15.012Z,19.72
2019-06-15T01:14:15.011Z,19.68
2019-06-15T01:15:15.016Z,19.68
2019-06-15T01:16:15.001Z,19.62
2019-06-15T01:17:15.006Z,19.64
2019-06-15T01:18:15.023Z,19.65
2019-06-15T01:19:14.993Z,19.68
2019-06-15T01:20:14.987Z,19.71
2019-06-15T01:21:14.995Z,19.70
2019-06-15T01:22:14.990Z,19.65
2019-06-15T01:23:14.988Z,19.72
2019-06-15T01:24:14.984Z,19.68
2019-06-15T01:25:14.979Z,19.68
2019-06-15T01:26:14.978Z,19.68
2019-06-15T01:27:14.975Z,19.80
2019-06-15T01:28:14.968Z,19.72
2019-06-15T01:29:14.969Z,19.76
2019-06-15T01:30:14.976Z,19.70
2019-06-15T01:31:14.965Z,19.79
2019-06-15T01:32:14.958Z,19.82
2019-06-15T01:33:14.951Z,19.90
2019-06-15T01:34:14.952Z,19.90
2019-06-15T01:35:14.948Z,19.94
2019-06-15T01:36:14.948Z,20.01
2019-06-15T01:37:14.944Z,19.92
2019-06-15T01:38:14.937Z,19.98
2019-06-15T01:39:14.936Z,19.97
2019-06-15T01:40:14.933Z,19.98
2019-06-15T01:41:14.935Z,20.10
2019-06-15T01:42:14.934Z,20.00
2019-06-15T01:43:14.929Z,20.04
2019-06-15T01:44:14.925Z,20.10
2019-06-15T01:45:14.920Z,20.07
2019-06-15T01:46:14.916Z,20.04
2019-06-15T01:47:14.919Z,20.10
2019-06-15T01:48:14.911Z,20.05
2019-06-15T01:49:14.913Z,20.02
2019-06-15T01:50:14.928Z,20.01
2019-06-15T01:51:14.904Z,20.07
2019-06-15T01:52:14.902Z,20.05
2019-06-15T01:53:14.906Z,20.01
2019-06-15T01:54:14.900Z,20.04
2019-06-15T01:55:20.864Z,20.07
2019-06-15T01:56:14.891Z,20.07
2019-06-15T01:57:14.884Z,20.01
2019-06-15T01:58:14.882Z,19.98
2019-06-15T01:59:14.883Z,20.02
2019-06-15T02:00:14.885Z,20.00
2019-06-15T02:01:14.879Z,20.02
2019-06-15T02:02:14.878Z,20.05
2019-06-15T02:03:14.877Z,20.10
2019-06-15T02:04:14.874Z,19.98
2019-06-15T02:05:14.868Z,19.97
2019-06-15T02:06:14.867Z,19.89
2019-06-15T02:07:14.867Z,19.98
2019-06-15T02:08:14.863Z,19.87
2019-06-15T02:09:14.860Z,19.87
2019-06-15T02:10:14.881Z,19.76
2019-06-15T02:11:14.851Z,19.79
2019-06-15T02:12:14.848Z,19.83
2019-06-15T02:13:14.863Z,19.80
2019-06-15T02:14:14.852Z,19.76
2019-06-15T02:15:14.856Z,19.82
2019-06-15T02:16:14.844Z,19.90
2019-06-15T02:17:14.837Z,19.83
2019-06-15T02:18:14.845Z,19.76
2019-06-15T02:19:14.834Z,19.80
2019-06-15T02:20:14.831Z,19.80
2019-06-15T02:21:14.835Z,19.80
2019-06-15T02:22:14.835Z,19.72
2019-06-15T02:23:14.829Z,19.83
2019-06-15T02:24:14.822Z,19.82
2019-06-15T02:25:14.824Z,19.75
2019-06-15T02:26:14.821Z,19.76
2019-06-15T02:27:14.816Z,19.76
2019-06-15T02:28:14.817Z,19.79
2019-06-15T02:29:14.808Z,19.79
2019-06-15T02:30:14.806Z,19.76
2019-06-15T02:31:14.805Z,19.79
2019-06-15T02:32:14.803Z,19.82
2019-06-15T02:33:14.802Z,19.92
2019-06-15T02:34:14.819Z,19.89
2019-06-15T02:35:14.801Z,19.90
2019-06-15T02:36:14.795Z,19.85
2019-06-15T02:37:14.791Z,19.94
2019-06-15T02:38:14.786Z,19.95
2019-06-15T02:39:14.788Z,19.97
2019-06-15T02:40:14.788Z,20.00
2019-06-15T02:41:14.779Z,20.00
2019-06-15T02:42:14.779Z,19.95
2019-06-15T02:43:14.773Z,19.95
2019-06-15T02:44:14.768Z,19.98
2019-06-15T02:45:14.776Z,19.95
2019-06-15T02:46:14.802Z,19.97
2019-06-15T02:47:14.776Z,19.92
2019-06-15T02:48:14.768Z,19.75
2019-06-15T02:49:14.759Z,19.83
2019-06-15T02:50:14.758Z,19.79
2019-06-15T02:51:14.753Z,19.83
2019-06-15T02:52:14.749Z,19.78
2019-06-15T02:53:14.751Z,19.76
2019-06-15T02:54:14.752Z,19.70
2019-06-15T02:55:14.742Z,19.86
2019-06-15T02:56:14.740Z,19.80
2019-06-15T02:57:14.741Z,19.90
2019-06-15T02:58:14.739Z,19.82
2019-06-15T02:59:14.739Z,19.78
2019-06-15T03:00:14.735Z,19.72
2019-06-15T03:01:14.730Z,19.82
2019-06-15T03:02:14.728Z,19.87
2019-06-15T03:03:14.726Z,19.85
2019-06-15T03:04:14.721Z,19.80
2019-06-15T03:05:14.725Z,19.76
2019-06-15T03:06:14.722Z,19.79
2019-06-15T03:07:14.751Z,19.79
2019-06-15T03:08:14.715Z,19.75
2019-06-15T03:09:14.733Z,19.70
2019-06-15T03:10:14.705Z,19.68
2019-06-15T03:11:14.710Z,19.67
2019-06-15T03:12:14.703Z,19.57
2019-06-15T03:13:14.700Z,19.58
2019-06-15T03:14:14.695Z,19.53
2019-06-15T03:15:14.696Z,19.62
2019-06-15T03:16:14.748Z,19.62
2019-06-15T03:17:14.692Z,19.52
2019-06-15T03:18:14.693Z,19.57
2019-06-15T03:19:14.689Z,19.61
2019-06-15T03:20:14.683Z,19.57
2019-06-15T03:21:14.678Z,19.57
2019-06-15T03:22:14.676Z,19.60
2019-06-15T03:23:14.671Z,19.58
2019-06-15T03:24:14.679Z,19.62
2019-06-15T03:25:14.675Z,19.70
2019-06-15T03:26:14.667Z,19.79
2019-06-15T03:27:14.661Z,19.76
2019-06-15T03:28:14.658Z,19.76
2019-06-15T03:29:14.660Z,19.83
2019-06-15T03:30:14.660Z,19.85
2019-06-15T03:31:14.668Z,19.78
2019-06-15T03:32:14.655Z,19.94
2019-06-15T03:33:14.648Z,19.95
2019-06-15T03:34:14.646Z,19.97
2019-06-15T03:35:14.643Z,20.01
2019-06-15T03:36:14.639Z,19.86
2019-06-15T03:37:14.642Z,19.92
2019-06-15T03:38:14.640Z,19.75
2019-06-15T03:39:14.643Z,19.85
2019-06-15T03:40:14.631Z,19.80
2019-06-15T03:41:14.624Z,19.80
2019-06-15T03:42:14.620Z,19.76
2019-06-15T03:43:14.622Z,19.83
2019-06-15T03:44:14.622Z,19.80
2019-06-15T03:45:14.615Z,19.76
2019-06-15T03:46:14.611Z,19.76
2019-06-15T03:47:14.611Z,19.79
2019-06-15T03:48:14.608Z,19.80
2019-06-15T03:49:14.611Z,19.78
2019-06-15T03:50:14.611Z,19.80
2019-06-15T03:51:14.605Z,19.89
2019-06-15T03:52:14.609Z,19.94
2019-06-15T03:53:14.597Z,19.92
2019-06-15T03:54:14.594Z,19.92
2019-06-15T03:55:14.589Z,19.71
2019-06-15T03:56:21.525Z,19.80
2019-06-15T03:57:14.586Z,19.72
2019-06-15T03:58:14.585Z,19.78
2019-06-15T03:59:14.577Z,19.72
2019-06-15T04:00:14.584Z,19.76
2019-06-15T04:01:14.578Z,19.76
2019-06-15T04:02:14.578Z,19.85
2019-06-15T04:03:14.574Z,19.82
2019-06-15T04:04:14.571Z,19.79
2019-06-15T04:05:14.565Z,19.82
2019-06-15T04:06:14.562Z,19.78
2019-06-15T04:07:14.560Z,19.72
2019-06-15T04:08:14.558Z,19.80
2019-06-15T04:09:14.560Z,19.75
2019-06-15T04:10:14.557Z,19.80
2019-06-15T04:11:14.562Z,19.86
2019-06-15T04:12:14.552Z,19.87
2019-06-15T04:13:14.542Z,19.92
2019-06-15T04:14:14.541Z,19.97
2019-06-15T04:15:14.545Z,19.87
2019-06-15T04:16:14.541Z,19.92
2019-06-15T04:17:14.533Z,19.94
2019-06-15T04:18:14.531Z,19.92
2019-06-15T04:19:14.530Z,19.82
2019-06-15T04:20:14.530Z,19.89
2019-06-15T04:21:14.527Z,19.95
2019-06-15T04:22:14.527Z,19.94
2019-06-15T04:23:14.525Z,19.98
2019-06-15T04:24:14.521Z,20.01
2019-06-15T04:25:14.515Z,19.98
2019-06-15T04:26:14.512Z,20.01
2019-06-15T04:27:14.508Z,19.95
2019-06-15T04:28:14.505Z,19.87
2019-06-15T04:29:14.505Z,19.89
2019-06-15T04:30:14.505Z,19.79
2019-06-15T04:31:14.500Z,19.78
2019-06-15T04:32:14.494Z,19.82
2019-06-15T04:33:14.499Z,19.80
2019-06-15T04:34:14.495Z,19.78
2019-06-15T04:35:14.496Z,19.75
2019-06-15T04:36:14.491Z,19.82
2019-06-15T04:37:14.486Z,19.83
2019-06-15T04:38:14.484Z,19.79
2019-06-15T04:39:14.482Z,19.79
2019-06-15T04:40:14.478Z,19.80
2019-06-15T04:41:14.479Z,19.83
2019-06-15T04:42:14.478Z,19.78
2019-06-15T04:43:14.474Z,19.71
2019-06-15T04:44:14.472Z,19.82
2019-06-15T04:45:14.464Z,19.76
2019-06-15T04:46:14.486Z,19.75
2019-06-15T04:47:14.463Z,19.80
2019-06-15T04:48:14.464Z,19.75
2019-06-15T04:49:14.453Z,19.75
2019-06-15T04:50:14.456Z,19.75
2019-06-15T04:51:14.451Z,19.72
2019-06-15T04:52:14.447Z,19.78
2019-06-15T04:53:14.953Z,19.75
2019-06-15T04:54:14.447Z,19.71
2019-06-15T04:55:14.447Z,19.71
2019-06-15T04:56:14.440Z,19.72
2019-06-15T04:57:14.434Z,19.80
2019-06-15T04:58:14.434Z,19.72
2019-06-15T04:59:14.433Z,19.85
2019-06-15T05:00:14.429Z,19.72
2019-06-15T05:01:14.430Z,19.67
2019-06-15T05:02:14.427Z,19.72
2019-06-15T05:03:14.421Z,19.80
2019-06-15T05:04:14.419Z,19.79
2019-06-15T05:05:14.421Z,19.79
2019-06-15T05:06:14.422Z,19.82
2019-06-15T05:07:14.418Z,19.76
2019-06-15T05:08:14.410Z,19.76
2019-06-15T05:09:14.405Z,19.75
2019-06-15T05:10:14.400Z,19.80
2019-06-15T05:11:14.404Z,19.87
2019-06-15T05:12:14.396Z,19.78
2019-06-15T05:13:14.401Z,19.80
2019-06-15T05:14:14.401Z,19.75
2019-06-15T05:15:14.396Z,19.76
2019-06-15T05:16:14.397Z,19.86
2019-06-15T05:17:14.387Z,19.83
2019-06-15T05:18:14.492Z,19.78
2019-06-15T05:19:14.388Z,19.78
2019-06-15T05:20:14.387Z,19.76
2019-06-15T05:21:14.406Z,19.72
2019-06-15T05:22:14.379Z,19.80
2019-06-15T05:23:14.373Z,19.78
2019-06-15T05:24:14.368Z,19.82
2019-06-15T05:25:14.369Z,19.82
2019-06-15T05:26:14.367Z,19.68
2019-06-15T05:27:14.367Z,19.80
2019-06-15T05:28:14.367Z,19.79
2019-06-15T05:29:14.357Z,19.79
2019-06-15T05:30:14.353Z,19.76
2019-06-15T05:31:14.354Z,19.80
2019-06-15T05:32:14.353Z,19.80
2019-06-15T05:33:14.353Z,19.75
2019-06-15T05:34:14.353Z,19.71
2019-06-15T05:35:14.347Z,19.67
2019-06-15T05:36:14.343Z,19.53
2019-06-15T05:37:14.345Z,19.62
2019-06-15T05:38:14.343Z,19.62
2019-06-15T05:39:14.339Z,19.64
2019-06-15T05:40:14.341Z,19.55
2019-06-15T05:41:15.770Z,19.52
2019-06-15T05:42:14.327Z,19.52
2019-06-15T05:43:14.324Z,19.52
2019-06-15T05:44:14.325Z,19.52
2019-06-15T05:45:14.327Z,19.57
2019-06-15T05:46:14.326Z,19.61
2019-06-15T05:47:14.323Z,19.58
2019-06-15T05:48:14.318Z,19.58
2019-06-15T05:49:14.316Z,19.57
2019-06-15T05:50:14.314Z,19.57
2019-06-15T05:51:14.341Z,19.58
2019-06-15T05:52:14.319Z,19.53
2019-06-15T05:53:14.304Z,19.57
2019-06-15T05:54:14.303Z,19.55
2019-06-15T05:55:14.297Z,19.61
2019-06-15T05:56:14.292Z,19.58
2019-06-15T05:57:21.542Z,19.70
2019-06-15T05:58:14.301Z,19.75
2019-06-15T05:59:14.297Z,19.75
2019-06-15T06:00:14.296Z,19.80
2019-06-15T06:01:14.286Z,19.76
2019-06-15T06:02:14.283Z,19.90
2019-06-15T06:03:14.276Z,19.89
2019-06-15T06:04:14.275Z,19.90
2019-06-15T06:05:14.278Z,19.94
2019-06-15T06:06:14.276Z,19.94
2019-06-15T06:07:14.268Z,19.98
2019-06-15T06:08:14.265Z,20.13
2019-06-15T06:09:14.275Z,20.10
2019-06-15T06:10:14.266Z,20.13
2019-06-15T06:11:14.308Z,20.16
2019-06-15T06:12:14.264Z,20.19
2019-06-15T06:13:14.261Z,20.16
2019-06-15T06:14:14.256Z,20.04
2019-06-15T06:15:14.256Z,20.16
2019-06-15T06:16:14.288Z,20.13
2019-06-15T06:17:14.263Z,20.16
2019-06-15T06:18:14.254Z,20.13
2019-06-15T06:19:14.248Z,20.15
2019-06-15T06:20:14.246Z,20.20
2019-06-15T06:21:14.240Z,20.19
2019-06-15T06:22:14.237Z,20.19
2019-06-15T06:23:14.316Z,20.20
2019-06-15T06:24:14.238Z,20.15
2019-06-15T06:25:14.236Z,20.19
2019-06-15T06:26:14.242Z,20.31
2019-06-15T06:27:14.231Z,20.33
2019-06-15T06:28:14.227Z,20.38
2019-06-15T06:29:14.230Z,20.37
2019-06-15T06:30:14.228Z,20.33
2019-06-15T06:31:14.227Z,20.34
2019-06-15T06:32:14.224Z,20.31
2019-06-15T06:33:14.218Z,20.33
2019-06-15T06:34:14.216Z,20.37
2019-06-15T06:35:14.217Z,20.46
2019-06-15T06:36:14.211Z,20.40
2019-06-15T06:37:14.216Z,20.53
2019-06-15T06:38:14.212Z,20.46
2019-06-15T06:39:14.204Z,20.42
2019-06-15T06:40:14.205Z,20.44
2019-06-15T06:41:14.204Z,20.51
2019-06-15T06:42:14.207Z,20.66
2019-06-15T06:43:14.205Z,20.63
2019-06-15T06:44:14.204Z,20.68
2019-06-15T06:45:14.202Z,20.64
2019-06-15T06:46:14.199Z,20.79
2019-06-15T06:47:14.195Z,20.73
2019-06-15T06:48:14.191Z,20.79
2019-06-15T06:49:14.195Z,20.88
2019-06-15T06:50:14.195Z,20.93
2019-06-15T06:51:14.187Z,20.98
2019-06-15T06:52:14.185Z,21.09
2019-06-15T06:53:14.259Z,21.19
2019-06-15T06:54:14.180Z,21.22
2019-06-15T06:55:14.183Z,21.27
2019-06-15T06:56:14.180Z,21.38
2019-06-15T06:57:14.176Z,21.56
2019-06-15T06:58:14.173Z,21.68
2019-06-15T06:59:14.176Z,21.86
2019-06-15T07:00:14.175Z,22.04
2019-06-15T07:01:14.177Z,22.15
2019-06-15T07:02:14.177Z,22.35
2019-06-15T07:03:14.177Z,22.64
2019-06-15T07:04:14.171Z,22.88
2019-06-15T07:05:14.168Z,23.54
2019-06-15T07:06:14.167Z,24.14
2019-06-15T07:07:14.172Z,24.26
2019-06-15T07:08:14.170Z,24.19
2019-06-15T07:09:14.173Z,24.29
2019-06-15T07:10:14.173Z,24.33
2019-06-15T07:11:14.170Z,24.37
2019-06-15T07:12:14.175Z,24.34
2019-06-15T07:13:14.178Z,24.21
2019-06-15T07:14:14.181Z,24.02
2019-06-15T07:15:14.176Z,23.99
2019-06-15T07:16:14.183Z,23.79
2019-06-15T07:17:14.171Z,23.77
2019-06-15T07:18:14.173Z,23.68
2019-06-15T07:19:14.180Z,23.56
2019-06-15T07:20:14.177Z,23.50
2019-06-15T07:21:14.180Z,23.50
2019-06-15T07:22:14.184Z,23.54
2019-06-15T07:23:14.195Z,23.56
2019-06-15T07:24:14.185Z,23.54
2019-06-15T07:25:14.183Z,23.67
2019-06-15T07:26:14.184Z,23.79
2019-06-15T07:27:14.190Z,23.97
2019-06-15T07:28:14.193Z,24.42
2019-06-15T07:29:14.186Z,24.77
2019-06-15T07:30:14.191Z,25.19
2019-06-15T07:31:14.185Z,25.48
2019-06-15T07:32:14.187Z,25.49
2019-06-15T07:33:14.192Z,25.85
2019-06-15T07:34:14.195Z,26.44
2019-06-15T07:35:14.197Z,26.78
2019-06-15T07:36:14.398Z,27.71
2019-06-15T07:37:14.194Z,28.69
2019-06-15T07:38:14.198Z,29.14
2019-06-15T07:39:14.207Z,29.49
2019-06-15T07:40:14.207Z,29.70
2019-06-15T07:41:14.214Z,29.64
2019-06-15T07:42:14.217Z,29.94
2019-06-15T07:43:14.219Z,31.25
2019-06-15T07:44:14.267Z,32.36
2019-06-15T07:45:14.232Z,33.43
2019-06-15T07:46:14.237Z,33.33
2019-06-15T07:47:14.241Z,32.72
2019-06-15T07:48:14.293Z,32.35
2019-06-15T07:49:14.246Z,31.82
2019-06-15T07:50:14.251Z,31.71
2019-06-15T07:51:14.262Z,31.41
2019-06-15T07:52:14.264Z,31.13
2019-06-15T07:53:14.278Z,30.93
2019-06-15T07:54:14.280Z,31.56
2019-06-15T07:55:14.290Z,30.81
2019-06-15T07:56:14.296Z,30.36
2019-06-15T07:57:14.300Z,29.91
2019-06-15T07:58:24.189Z,29.64
2019-06-15T07:59:14.314Z,29.51
2019-06-15T08:00:14.329Z,29.23
2019-06-15T08:01:14.323Z,28.95
2019-06-15T08:02:14.331Z,28.73
2019-06-15T08:03:14.330Z,28.42
2019-06-15T08:04:14.368Z,27.83
2019-06-15T08:05:14.346Z,27.52
2019-06-15T08:06:14.352Z,27.40
2019-06-15T08:07:14.354Z,27.16
2019-06-15T08:08:14.358Z,26.87
2019-06-15T08:09:14.374Z,26.73
2019-06-15T08:10:14.371Z,26.38
2019-06-15T08:11:14.378Z,26.21
2019-06-15T08:12:14.377Z,25.86
2019-06-15T08:13:14.379Z,25.63
2019-06-15T08:14:14.380Z,25.53
2019-06-15T08:15:14.391Z,25.42
2019-06-15T08:16:14.392Z,25.17
2019-06-15T08:17:14.402Z,25.01
2019-06-15T08:18:14.394Z,24.94
2019-06-15T08:19:14.402Z,24.61
2019-06-15T08:20:14.412Z,24.34
2019-06-15T08:21:14.408Z,24.26
2019-06-15T08:22:14.413Z,24.09
2019-06-15T08:23:14.415Z,23.90
2019-06-15T08:24:14.419Z,23.69
2019-06-15T08:25:14.415Z,23.50
2019-06-15T08:26:14.420Z,23.32
2019-06-15T08:27:14.418Z,23.03
2019-06-15T08:28:14.419Z,22.88
2019-06-15T08:29:14.426Z,22.78
2019-06-15T08:30:14.437Z,22.64
2019-06-15T08:31:14.422Z,22.64
2019-06-15T08:32:14.425Z,22.64
2019-06-15T08:33:14.430Z,22.44
2019-06-15T08:34:14.431Z,22.36
2019-06-15T08:35:14.436Z,22.36
2019-06-15T08:36:14.434Z,22.46
2019-06-15T08:37:14.431Z,22.46
2019-06-15T08:38:14.437Z,22.46
2019-06-15T08:39:14.444Z,22.15
2019-06-15T08:40:14.434Z,22.17
2019-06-15T08:41:14.439Z,22.04
2019-06-15T08:42:14.441Z,21.94
2019-06-15T08:43:14.439Z,21.86
2019-06-15T08:44:14.437Z,21.67
2019-06-15T08:45:14.434Z,21.63
2019-06-15T08:46:14.434Z,21.51
2019-06-15T08:47:14.451Z,21.36
2019-06-15T08:48:14.487Z,21.31
2019-06-15T08:49:14.436Z,21.22
2019-06-15T08:50:14.435Z,21.19
2019-06-15T08:51:14.437Z,21.05
2019-06-15T08:52:14.436Z,20.91
2019-06-15T08:53:14.439Z,21.00
2019-06-15T08:54:14.444Z,21.06
2019-06-15T08:55:14.442Z,20.94
2019-06-15T08:56:14.438Z,20.88
2019-06-15T08:57:14.436Z,20.90
2019-06-15T08:58:14.435Z,20.93
2019-06-15T08:59:14.436Z,20.85
2019-06-15T09:00:14.432Z,20.85
2019-06-15T09:01:14.438Z,20.72
2019-06-15T09:02:14.437Z,20.76
2019-06-15T09:03:14.431Z,20.76
2019-06-15T09:04:14.429Z,20.68
2019-06-15T09:05:14.433Z,20.61
2019-06-15T09:06:14.432Z,20.73
2019-06-15T09:07:14.433Z,20.68
2019-06-15T09:08:14.434Z,20.68
2019-06-15T09:09:16.083Z,20.69
2019-06-15T09:10:14.427Z,20.61
2019-06-15T09:11:14.430Z,20.58
2019-06-15T09:12:14.421Z,20.53
2019-06-15T09:13:14.425Z,20.53
2019-06-15T09:14:14.429Z,20.56
2019-06-15T09:15:14.425Z,20.50
2019-06-15T09:16:14.423Z,20.51
2019-06-15T09:17:14.418Z,20.53
2019-06-15T09:18:14.418Z,20.60
2019-06-15T09:19:14.423Z,20.60
2019-06-15T09:20:14.418Z,20.68
2019-06-15T09:21:14.415Z,20.53
2019-06-15T09:22:14.416Z,20.53
2019-06-15T09:23:14.410Z,20.68
2019-06-15T09:24:14.408Z,20.69
2019-06-15T09:25:14.410Z,20.85
2019-06-15T09:26:14.411Z,20.93
2019-06-15T09:27:14.419Z,20.93
2019-06-15T09:28:14.407Z,20.96
2019-06-15T09:29:14.402Z,20.79
2019-06-15T09:30:14.402Z,20.94
2019-06-15T09:31:14.403Z,20.96
2019-06-15T09:32:14.402Z,20.97
2019-06-15T09:33:14.405Z,21.18
2019-06-15T09:34:18.937Z,21.28
2019-06-15T09:35:14.399Z,21.26
2019-06-15T09:36:14.398Z,21.42
2019-06-15T09:37:14.400Z,21.51
2019-06-15T09:38:14.399Z,21.66
2019-06-15T09:39:14.749Z,21.91
2019-06-15T09:40:14.396Z,22.39
2019-06-15T09:41:14.392Z,22.82
2019-06-15T09:42:14.389Z,22.88
2019-06-15T09:43:14.390Z,23.01
2019-06-15T09:44:14.390Z,23.15
2019-06-15T09:45:14.394Z,23.32
2019-06-15T09:46:14.395Z,23.49
2019-06-15T09:47:14.398Z,23.71
2019-06-15T09:48:14.396Z,23.96
2019-06-15T09:49:14.395Z,24.04
2019-06-15T09:50:14.395Z,24.05
2019-06-15T09:51:14.400Z,23.92
2019-06-15T09:52:14.401Z,24.00
2019-06-15T09:53:14.399Z,24.24
2019-06-15T09:54:14.401Z,24.60
2019-06-15T09:55:14.398Z,25.16
2019-06-15T09:56:14.402Z,25.67
2019-06-15T09:57:14.418Z,26.08
2019-06-15T09:58:14.408Z,26.28
2019-06-15T09:59:25.619Z,26.46
2019-06-15T10:00:14.413Z,26.44
2019-06-15T10:01:14.412Z,26.87
2019-06-15T10:02:14.413Z,27.65
2019-06-15T10:03:14.420Z,28.09
2019-06-15T10:04:14.436Z,28.24
2019-06-15T10:05:14.438Z,29.08
2019-06-15T10:06:14.448Z,29.84
2019-06-15T10:07:14.437Z,30.25
2019-06-15T10:08:14.463Z,30.42
2019-06-15T10:09:14.635Z,31.35
2019-06-15T10:10:14.468Z,32.07
2019-06-15T10:11:14.466Z,32.59
2019-06-15T10:12:14.468Z,33.17
2019-06-15T10:13:14.473Z,33.84
2019-06-15T10:14:14.483Z,33.43
2019-06-15T10:15:14.499Z,32.99
2019-06-15T10:16:14.505Z,33.65
2019-06-15T10:17:14.518Z,34.26
2019-06-15T10:18:14.530Z,34.69
2019-06-15T10:19:14.537Z,35.36
2019-06-15T10:20:14.555Z,35.22
2019-06-15T10:21:14.556Z,35.62
2019-06-15T10:22:14.576Z,35.27
2019-06-15T10:23:14.583Z,35.09
2019-06-15T10:24:14.595Z,35.80
2019-06-15T10:25:14.601Z,36.40
2019-06-15T10:26:14.615Z,36.56
2019-06-15T10:27:14.631Z,36.74
2019-06-15T10:28:14.642Z,37.04
2019-06-15T10:29:14.660Z,37.18
2019-06-15T10:30:14.672Z,34.80
2019-06-15T10:31:14.689Z,34.46
2019-06-15T10:32:14.745Z,35.27
2019-06-15T10:33:14.712Z,34.91
2019-06-15T10:34:14.723Z,34.75
2019-06-15T10:35:14.734Z,35.52
2019-06-15T10:36:14.754Z,35.55
2019-06-15T10:37:14.766Z,35.49
2019-06-15T10:38:14.781Z,35.15
2019-06-15T10:39:14.805Z,35.44
2019-06-15T10:40:14.807Z,35.98
2019-06-15T10:41:14.828Z,36.34
2019-06-15T10:42:14.837Z,36.37
2019-06-15T10:43:14.856Z,36.89
2019-06-15T10:44:14.869Z,37.28
2019-06-15T10:45:14.878Z,36.23
2019-06-15T10:46:14.893Z,36.25
2019-06-15T10:47:14.909Z,36.72
2019-06-15T10:48:14.922Z,35.96
2019-06-15T10:49:14.943Z,36.64
2019-06-15T10:50:14.956Z,36.89
2019-06-15T10:51:14.970Z,37.28
2019-06-15T10:52:14.986Z,37.34
2019-06-15T10:53:14.999Z,37.60
2019-06-15T10:54:15.010Z,37.59
2019-06-15T10:55:15.035Z,37.38
2019-06-15T10:56:15.048Z,37.72
2019-06-15T10:57:15.059Z,38.22
2019-06-15T10:58:15.076Z,38.72
2019-06-15T10:59:15.094Z,38.53
2019-06-15T11:00:15.118Z,38.31
2019-06-15T11:01:15.136Z,38.49
2019-06-15T11:02:15.145Z,37.97
2019-06-15T11:03:15.163Z,37.96
2019-06-15T11:04:15.178Z,38.36
2019-06-15T11:05:15.192Z,38.49
2019-06-15T11:06:15.209Z,37.05
2019-06-15T11:07:15.226Z,37.54
2019-06-15T11:08:15.238Z,36.89
2019-06-15T11:09:15.261Z,36.41
2019-06-15T11:10:15.280Z,36.55
2019-06-15T11:11:15.290Z,36.64
2019-06-15T11:12:15.306Z,36.77
2019-06-15T11:13:15.328Z,37.16
2019-06-15T11:14:15.345Z,36.71
2019-06-15T11:15:15.365Z,35.92
2019-06-15T11:16:15.376Z,35.17
2019-06-15T11:17:15.395Z,35.00
2019-06-15T11:18:15.419Z,34.94
2019-06-15T11:19:15.418Z,34.36
2019-06-15T11:20:15.430Z,34.21
2019-06-15T11:21:15.448Z,34.09
2019-06-15T11:22:15.465Z,33.79
2019-06-15T11:23:15.482Z,33.77
2019-06-15T11:24:15.494Z,33.72
2019-06-15T11:25:15.505Z,32.87
2019-06-15T11:26:15.516Z,32.85
2019-06-15T11:27:15.552Z,32.65
2019-06-15T11:28:15.545Z,31.68
2019-06-15T11:29:15.576Z,31.45
2019-06-15T11:30:15.570Z,31.41
2019-06-15T11:31:15.624Z,31.27
2019-06-15T11:32:15.585Z,31.09
2019-06-15T11:33:15.601Z,31.03
2019-06-15T11:34:15.620Z,30.81
2019-06-15T11:35:15.624Z,30.79
2019-06-15T11:36:15.640Z,30.98
2019-06-15T11:37:15.640Z,31.03
2019-06-15T11:38:15.648Z,31.16
2019-06-15T11:39:15.663Z,30.98
2019-06-15T11:40:15.721Z,31.01
2019-06-15T11:41:15.685Z,31.01
2019-06-15T11:42:15.697Z,30.94
2019-06-15T11:43:15.709Z,30.49
2019-06-15T11:44:15.707Z,30.61
2019-06-15T11:45:15.720Z,30.48
2019-06-15T11:46:15.727Z,30.56
2019-06-15T11:47:15.733Z,30.49
2019-06-15T11:48:15.746Z,30.36
2019-06-15T11:49:15.746Z,29.69
2019-06-15T11:50:15.752Z,29.63
2019-06-15T11:51:15.764Z,29.67
2019-06-15T11:52:15.767Z,29.69
2019-06-15T11:53:15.779Z,29.71
2019-06-15T11:54:15.787Z,29.55
2019-06-15T11:55:15.797Z,29.79
2019-06-15T11:56:15.804Z,29.92
2019-06-15T11:57:15.806Z,30.01
2019-06-15T11:58:15.814Z,30.18
2019-06-15T11:59:15.826Z,30.34
2019-06-15T12:00:30.389Z,30.28
2019-06-15T12:01:18.810Z,30.34
2019-06-15T12:02:15.842Z,30.42
2019-06-15T12:03:15.845Z,30.46
2019-06-15T12:04:15.851Z,30.67
2019-06-15T12:05:15.884Z,30.75
2019-06-15T12:06:15.876Z,30.67
2019-06-15T12:07:15.876Z,30.76
2019-06-15T12:08:15.884Z,30.85
2019-06-15T12:09:15.893Z,30.98
2019-06-15T12:10:15.891Z,30.44
2019-06-15T12:11:15.902Z,30.36
2019-06-15T12:12:15.906Z,30.19
2019-06-15T12:13:15.918Z,30.30
2019-06-15T12:14:16.015Z,30.25
2019-06-15T12:15:15.927Z,30.36
2019-06-15T12:16:15.937Z,30.37
2019-06-15T12:17:15.943Z,30.46
2019-06-15T12:18:15.951Z,30.45
2019-06-15T12:19:15.960Z,30.34
2019-06-15T12:20:15.960Z,29.99
2019-06-15T12:21:15.963Z,29.82
2019-06-15T12:22:15.969Z,29.89
2019-06-15T12:23:15.975Z,29.82
2019-06-15T12:24:15.982Z,29.89
2019-06-15T12:25:15.991Z,30.00
2019-06-15T12:26:16.001Z,29.89
2019-06-15T12:27:16.006Z,30.03
2019-06-15T12:28:16.015Z,30.00
2019-06-15T12:29:16.015Z,29.92
2019-06-15T12:30:16.021Z,29.73
2019-06-15T12:31:16.035Z,29.69
2019-06-15T12:32:16.037Z,29.81
2019-06-15T12:33:16.040Z,29.54
2019-06-15T12:34:16.060Z,29.62
2019-06-15T12:35:16.049Z,29.49
2019-06-15T12:36:19.467Z,29.32
2019-06-15T12:37:16.064Z,29.21
2019-06-15T12:38:16.069Z,29.30
2019-06-15T12:39:16.080Z,29.23
2019-06-15T12:40:16.078Z,29.12
2019-06-15T12:41:16.086Z,28.79
2019-06-15T12:42:16.087Z,28.77
2019-06-15T12:43:16.097Z,28.85
2019-06-15T12:44:16.100Z,28.85
2019-06-15T12:45:16.111Z,29.03
2019-06-15T12:46:16.126Z,29.12
2019-06-15T12:47:16.120Z,29.37
2019-06-15T12:48:16.152Z,29.27
2019-06-15T12:49:16.134Z,29.26
2019-06-15T12:50:16.136Z,29.27
2019-06-15T12:51:16.166Z,29.26
2019-06-15T12:52:16.145Z,29.15